sensor_id;sensor_type;location;lat;lon;timestamp;temperature;humidity
13223;DHT22;6676;45.192;5.722;2022-11-20T00:04:20;7.90;99.90
13223;DHT22;6676;45.192;5.722;2022-11-20T00:09:50;7.80;99.90
13223;DHT22;6676;45.192;5.722;2022-11-20T00:12:41;7.80;99.90
13223;DHT22;6676;45.192;5.722;2022-11-20T00:15:32;7.80;99.90
13223;DHT22;6676;45.192;5.722;2022-11-20T00:18:24;7.80;99.90
13223;DHT22;6676;45.192;5.722;2022-11-20T00:24:01;7.70;99.90
13223;DHT22;6676;45.192;5.722;2022-11-20T00:26:53;7.70;99.90
13223;DHT22;6676;45.192;5.722;2022-11-20T00:29:44;7.70;99.90
13223;DHT22;6676;45.192;5.722;2022-11-20T00:32:36;7.80;99.90
13223;DHT22;6676;45.192;5.722;2022-11-20T00:35:27;7.80;99.90
13223;DHT22;6676;45.192;5.722;2022-11-20T00:38:19;7.70;99.90
13223;DHT22;6676;45.192;5.722;2022-11-20T00:41:11;7.70;99.90
13223;DHT22;6676;45.192;5.722;2022-11-20T00:44:03;7.70;99.90
13223;DHT22;6676;45.192;5.722;2022-11-20T00:49:34;7.80;99.90
13223;DHT22;6676;45.192;5.722;2022-11-20T00:52:25;7.70;99.90
13223;DHT22;6676;45.192;5.722;2022-11-20T00:55:17;7.80;99.90
13223;DHT22;6676;45.192;5.722;2022-11-20T00:58:08;7.90;99.90
13223;DHT22;6676;45.192;5.722;2022-11-20T01:01:06;7.80;99.90
13223;DHT22;6676;45.192;5.722;2022-11-20T01:06:40;7.70;99.90
13223;DHT22;6676;45.192;5.722;2022-11-20T01:09:31;7.70;99.90
13223;DHT22;6676;45.192;5.722;2022-11-20T01:12:23;7.60;99.90
13223;DHT22;6676;45.192;5.722;2022-11-20T01:17:53;7.70;99.90
13223;DHT22;6676;45.192;5.722;2022-11-20T01:20:45;7.80;99.90
13223;DHT22;6676;45.192;5.722;2022-11-20T01:23:38;7.90;99.90
13223;DHT22;6676;45.192;5.722;2022-11-20T01:29:14;7.80;99.90
13223;DHT22;6676;45.192;5.722;2022-11-20T01:32:06;7.80;99.90
13223;DHT22;6676;45.192;5.722;2022-11-20T01:34:58;7.90;99.90
13223;DHT22;6676;45.192;5.722;2022-11-20T01:40:31;7.90;99.90
13223;DHT22;6676;45.192;5.722;2022-11-20T01:43:22;7.90;99.90
13223;DHT22;6676;45.192;5.722;2022-11-20T01:49:04;7.90;99.90
13223;DHT22;6676;45.192;5.722;2022-11-20T01:51:58;7.90;99.90
13223;DHT22;6676;45.192;5.722;2022-11-20T01:54:52;7.90;99.90
13223;DHT22;6676;45.192;5.722;2022-11-20T02:00:26;7.90;99.90
13223;DHT22;6676;45.192;5.722;2022-11-20T02:03:18;7.80;99.90
13223;DHT22;6676;45.192;5.722;2022-11-20T02:08:51;7.80;99.90
13223;DHT22;6676;45.192;5.722;2022-11-20T02:14:22;7.80;99.90
13223;DHT22;6676;45.192;5.722;2022-11-20T02:17:16;7.80;99.90
13223;DHT22;6676;45.192;5.722;2022-11-20T02:20:09;7.80;99.90
13223;DHT22;6676;45.192;5.722;2022-11-20T02:25:40;7.80;99.90
13223;DHT22;6676;45.192;5.722;2022-11-20T02:28:32;7.70;99.90
13223;DHT22;6676;45.192;5.722;2022-11-20T02:34:03;7.70;99.90
13223;DHT22;6676;45.192;5.722;2022-11-20T02:36:54;7.70;99.90
13223;DHT22;6676;45.192;5.722;2022-11-20T02:39:47;7.80;99.90
13223;DHT22;6676;45.192;5.722;2022-11-20T02:45:18;7.50;99.90
13223;DHT22;6676;45.192;5.722;2022-11-20T02:48:09;7.40;99.90
13223;DHT22;6676;45.192;5.722;2022-11-20T02:51:01;7.30;99.90
13223;DHT22;6676;45.192;5.722;2022-11-20T02:53:53;7.20;99.90
13223;DHT22;6676;45.192;5.722;2022-11-20T02:59:23;7.10;99.90
13223;DHT22;6676;45.192;5.722;2022-11-20T03:02:14;7.00;99.90
13223;DHT22;6676;45.192;5.722;2022-11-20T03:05:06;6.90;99.90
13223;DHT22;6676;45.192;5.722;2022-11-20T03:07:58;6.90;99.90
13223;DHT22;6676;45.192;5.722;2022-11-20T03:10:49;6.80;99.90
13223;DHT22;6676;45.192;5.722;2022-11-20T03:13:40;6.80;99.90
13223;DHT22;6676;45.192;5.722;2022-11-20T03:16:32;6.70;99.90
13223;DHT22;6676;45.192;5.722;2022-11-20T03:19:23;6.70;99.90
13223;DHT22;6676;45.192;5.722;2022-11-20T03:22:15;6.70;99.90
13223;DHT22;6676;45.192;5.722;2022-11-20T03:25:07;6.80;99.90
13223;DHT22;6676;45.192;5.722;2022-11-20T03:27:59;6.80;99.90
13223;DHT22;6676;45.192;5.722;2022-11-20T03:30:51;6.90;99.90
13223;DHT22;6676;45.192;5.722;2022-11-20T03:33:43;6.90;99.90
13223;DHT22;6676;45.192;5.722;2022-11-20T03:36:35;7.00;99.90
13223;DHT22;6676;45.192;5.722;2022-11-20T03:39:28;7.10;99.90
13223;DHT22;6676;45.192;5.722;2022-11-20T03:42:19;7.20;99.90
13223;DHT22;6676;45.192;5.722;2022-11-20T03:45:28;7.30;99.90
13223;DHT22;6676;45.192;5.722;2022-11-20T03:48:20;7.40;99.90
13223;DHT22;6676;45.192;5.722;2022-11-20T03:53:53;7.30;99.90
13223;DHT22;6676;45.192;5.722;2022-11-20T03:59:23;7.30;99.90
13223;DHT22;6676;45.192;5.722;2022-11-20T04:02:14;7.30;99.90
13223;DHT22;6676;45.192;5.722;2022-11-20T04:05:08;7.20;99.90
13223;DHT22;6676;45.192;5.722;2022-11-20T04:07:59;7.10;99.90
13223;DHT22;6676;45.192;5.722;2022-11-20T04:10:50;7.10;99.90
13223;DHT22;6676;45.192;5.722;2022-11-20T04:13:42;6.90;99.90
13223;DHT22;6676;45.192;5.722;2022-11-20T04:19:16;6.80;99.90
13223;DHT22;6676;45.192;5.722;2022-11-20T04:22:08;6.90;99.90
13223;DHT22;6676;45.192;5.722;2022-11-20T04:25:01;6.70;99.90
13223;DHT22;6676;45.192;5.722;2022-11-20T04:27:52;6.50;99.90
13223;DHT22;6676;45.192;5.722;2022-11-20T04:30:44;6.50;99.90
13223;DHT22;6676;45.192;5.722;2022-11-20T04:33:36;6.50;99.90
13223;DHT22;6676;45.192;5.722;2022-11-20T04:36:29;6.50;99.90
13223;DHT22;6676;45.192;5.722;2022-11-20T04:39:20;6.60;99.90
13223;DHT22;6676;45.192;5.722;2022-11-20T04:44:51;6.50;99.90
13223;DHT22;6676;45.192;5.722;2022-11-20T04:47:43;6.50;99.90
13223;DHT22;6676;45.192;5.722;2022-11-20T04:50:34;6.60;99.90
13223;DHT22;6676;45.192;5.722;2022-11-20T04:53:26;6.70;99.90
13223;DHT22;6676;45.192;5.722;2022-11-20T04:56:17;6.70;99.90
13223;DHT22;6676;45.192;5.722;2022-11-20T04:59:09;6.70;99.90
13223;DHT22;6676;45.192;5.722;2022-11-20T05:02:00;6.80;99.90
13223;DHT22;6676;45.192;5.722;2022-11-20T05:04:52;6.70;99.90
13223;DHT22;6676;45.192;5.722;2022-11-20T05:07:43;6.70;99.90
13223;DHT22;6676;45.192;5.722;2022-11-20T05:10:35;6.70;99.90
13223;DHT22;6676;45.192;5.722;2022-11-20T05:13:27;6.70;99.90
13223;DHT22;6676;45.192;5.722;2022-11-20T05:16:20;6.70;99.90
13223;DHT22;6676;45.192;5.722;2022-11-20T05:19:12;6.70;99.90
13223;DHT22;6676;45.192;5.722;2022-11-20T05:22:04;6.70;99.90
13223;DHT22;6676;45.192;5.722;2022-11-20T05:24:56;6.70;99.90
13223;DHT22;6676;45.192;5.722;2022-11-20T05:30:39;6.60;99.90
13223;DHT22;6676;45.192;5.722;2022-11-20T05:33:30;6.50;99.90
13223;DHT22;6676;45.192;5.722;2022-11-20T05:36:22;6.50;99.90
13223;DHT22;6676;45.192;5.722;2022-11-20T05:39:13;6.50;99.90
13223;DHT22;6676;45.192;5.722;2022-11-20T05:42:05;6.60;99.90
13223;DHT22;6676;45.192;5.722;2022-11-20T05:45:14;6.60;99.90
13223;DHT22;6676;45.192;5.722;2022-11-20T05:48:06;6.70;99.90
13223;DHT22;6676;45.192;5.722;2022-11-20T05:50:59;6.70;99.90
13223;DHT22;6676;45.192;5.722;2022-11-20T05:53:51;6.60;99.90
13223;DHT22;6676;45.192;5.722;2022-11-20T05:56:42;6.60;99.90
13223;DHT22;6676;45.192;5.722;2022-11-20T05:59:34;6.50;99.90
13223;DHT22;6676;45.192;5.722;2022-11-20T06:02:25;6.60;99.90
13223;DHT22;6676;45.192;5.722;2022-11-20T06:05:17;6.60;99.90
13223;DHT22;6676;45.192;5.722;2022-11-20T06:08:09;6.50;99.90
13223;DHT22;6676;45.192;5.722;2022-11-20T06:11:05;6.50;99.90
13223;DHT22;6676;45.192;5.722;2022-11-20T06:13:56;6.60;99.90
13223;DHT22;6676;45.192;5.722;2022-11-20T06:19:27;6.60;99.90
13223;DHT22;6676;45.192;5.722;2022-11-20T06:22:18;6.60;99.90
13223;DHT22;6676;45.192;5.722;2022-11-20T06:25:09;6.50;99.90
13223;DHT22;6676;45.192;5.722;2022-11-20T06:28:00;6.50;99.90
13223;DHT22;6676;45.192;5.722;2022-11-20T06:30:53;6.40;99.90
13223;DHT22;6676;45.192;5.722;2022-11-20T06:36:30;6.40;99.90
13223;DHT22;6676;45.192;5.722;2022-11-20T06:39:21;6.40;99.90
13223;DHT22;6676;45.192;5.722;2022-11-20T06:42:13;6.40;99.90
13223;DHT22;6676;45.192;5.722;2022-11-20T06:45:06;6.40;99.90
13223;DHT22;6676;45.192;5.722;2022-11-20T06:47:58;6.30;99.90
13223;DHT22;6676;45.192;5.722;2022-11-20T06:50:50;6.30;99.90
13223;DHT22;6676;45.192;5.722;2022-11-20T06:53:41;6.40;99.90
13223;DHT22;6676;45.192;5.722;2022-11-20T06:56:32;6.30;99.90
13223;DHT22;6676;45.192;5.722;2022-11-20T06:59:24;6.30;99.90
13223;DHT22;6676;45.192;5.722;2022-11-20T07:02:15;6.30;99.90
13223;DHT22;6676;45.192;5.722;2022-11-20T07:05:08;6.30;99.90
13223;DHT22;6676;45.192;5.722;2022-11-20T07:08:00;6.10;99.90
13223;DHT22;6676;45.192;5.722;2022-11-20T07:10:52;6.10;99.90
13223;DHT22;6676;45.192;5.722;2022-11-20T07:13:44;6.00;99.90
13223;DHT22;6676;45.192;5.722;2022-11-20T07:20:02;6.00;99.90
13223;DHT22;6676;45.192;5.722;2022-11-20T07:22:55;6.10;99.90
13223;DHT22;6676;45.192;5.722;2022-11-20T07:25:46;6.20;99.90
13223;DHT22;6676;45.192;5.722;2022-11-20T07:31:17;6.30;99.90
13223;DHT22;6676;45.192;5.722;2022-11-20T07:34:08;6.30;99.90
13223;DHT22;6676;45.192;5.722;2022-11-20T07:39:38;6.20;99.90
13223;DHT22;6676;45.192;5.722;2022-11-20T07:42:30;6.30;99.90
13223;DHT22;6676;45.192;5.722;2022-11-20T07:45:25;6.40;99.90
13223;DHT22;6676;45.192;5.722;2022-11-20T07:48:17;6.40;99.90
13223;DHT22;6676;45.192;5.722;2022-11-20T07:51:08;6.40;99.90
13223;DHT22;6676;45.192;5.722;2022-11-20T07:54:00;6.40;99.90
13223;DHT22;6676;45.192;5.722;2022-11-20T07:59:34;6.50;99.90
13223;DHT22;6676;45.192;5.722;2022-11-20T08:02:27;6.60;99.90
13223;DHT22;6676;45.192;5.722;2022-11-20T08:05:20;6.70;99.90
13223;DHT22;6676;45.192;5.722;2022-11-20T08:08:12;6.70;99.90
13223;DHT22;6676;45.192;5.722;2022-11-20T08:11:03;6.80;99.90
13223;DHT22;6676;45.192;5.722;2022-11-20T08:14:12;6.90;99.90
13223;DHT22;6676;45.192;5.722;2022-11-20T08:17:04;7.00;99.90
13223;DHT22;6676;45.192;5.722;2022-11-20T08:19:55;7.00;99.90
13223;DHT22;6676;45.192;5.722;2022-11-20T08:22:46;7.10;99.90
13223;DHT22;6676;45.192;5.722;2022-11-20T08:25:38;7.10;99.90
13223;DHT22;6676;45.192;5.722;2022-11-20T08:28:30;7.20;99.90
13223;DHT22;6676;45.192;5.722;2022-11-20T08:34:03;7.20;99.90
13223;DHT22;6676;45.192;5.722;2022-11-20T08:36:56;7.30;99.90
13223;DHT22;6676;45.192;5.722;2022-11-20T08:39:48;7.30;99.90
13223;DHT22;6676;45.192;5.722;2022-11-20T08:45:18;7.40;99.90
13223;DHT22;6676;45.192;5.722;2022-11-20T08:48:10;7.50;99.90
13223;DHT22;6676;45.192;5.722;2022-11-20T08:51:01;7.60;99.90
13223;DHT22;6676;45.192;5.722;2022-11-20T08:53:53;7.60;99.90
13223;DHT22;6676;45.192;5.722;2022-11-20T08:59:24;7.70;99.90
13223;DHT22;6676;45.192;5.722;2022-11-20T09:04:56;7.80;99.90
13223;DHT22;6676;45.192;5.722;2022-11-20T09:07:47;7.80;99.90
13223;DHT22;6676;45.192;5.722;2022-11-20T09:10:38;7.90;99.90
13223;DHT22;6676;45.192;5.722;2022-11-20T09:13:31;7.90;99.90
13223;DHT22;6676;45.192;5.722;2022-11-20T09:19:03;8.00;99.90
13223;DHT22;6676;45.192;5.722;2022-11-20T09:21:57;8.00;99.90
13223;DHT22;6676;45.192;5.722;2022-11-20T09:24:50;8.00;99.90
13223;DHT22;6676;45.192;5.722;2022-11-20T09:27:42;8.10;99.90
13223;DHT22;6676;45.192;5.722;2022-11-20T09:33:20;8.30;99.90
13223;DHT22;6676;45.192;5.722;2022-11-20T09:36:11;8.30;99.90
13223;DHT22;6676;45.192;5.722;2022-11-20T09:39:03;8.40;99.90
13223;DHT22;6676;45.192;5.722;2022-11-20T09:42:17;8.50;99.90
13223;DHT22;6676;45.192;5.722;2022-11-20T09:45:16;8.60;99.90
13223;DHT22;6676;45.192;5.722;2022-11-20T09:48:24;8.60;99.90
13223;DHT22;6676;45.192;5.722;2022-11-20T09:54:06;8.70;99.90
13223;DHT22;6676;45.192;5.722;2022-11-20T09:59:40;8.80;99.90
13223;DHT22;6676;45.192;5.722;2022-11-20T10:02:35;8.80;99.90
13223;DHT22;6676;45.192;5.722;2022-11-20T10:05:30;8.80;99.90
13223;DHT22;6676;45.192;5.722;2022-11-20T10:08:24;8.80;99.90
13223;DHT22;6676;45.192;5.722;2022-11-20T10:14:01;8.70;99.90
13223;DHT22;6676;45.192;5.722;2022-11-20T10:16:59;8.60;99.90
13223;DHT22;6676;45.192;5.722;2022-11-20T10:19:59;8.80;99.90
13223;DHT22;6676;45.192;5.722;2022-11-20T10:22:58;9.00;99.90
13223;DHT22;6676;45.192;5.722;2022-11-20T10:25:51;9.20;99.90
13223;DHT22;6676;45.192;5.722;2022-11-20T10:28:51;9.20;99.90
13223;DHT22;6676;45.192;5.722;2022-11-20T10:34:28;9.30;99.90
13223;DHT22;6676;45.192;5.722;2022-11-20T10:40:05;9.40;99.90
13223;DHT22;6676;45.192;5.722;2022-11-20T10:42:59;9.30;99.90
13223;DHT22;6676;45.192;5.722;2022-11-20T10:45:55;9.30;99.90
13223;DHT22;6676;45.192;5.722;2022-11-20T10:48:47;9.40;99.90
13223;DHT22;6676;45.192;5.722;2022-11-20T10:54:24;9.40;99.90
13223;DHT22;6676;45.192;5.722;2022-11-20T11:00:03;9.40;99.90
13223;DHT22;6676;45.192;5.722;2022-11-20T11:02:54;9.50;99.90
13223;DHT22;6676;45.192;5.722;2022-11-20T11:05:49;9.50;99.90
13223;DHT22;6676;45.192;5.722;2022-11-20T11:08:42;9.50;99.90
13223;DHT22;6676;45.192;5.722;2022-11-20T11:14:14;9.60;99.90
13223;DHT22;6676;45.192;5.722;2022-11-20T11:17:17;9.50;99.90
13223;DHT22;6676;45.192;5.722;2022-11-20T11:20:17;9.60;99.90
13223;DHT22;6676;45.192;5.722;2022-11-20T11:23:26;9.60;99.90
13223;DHT22;6676;45.192;5.722;2022-11-20T11:29:04;9.60;99.90
13223;DHT22;6676;45.192;5.722;2022-11-20T11:32:06;9.70;99.90
13223;DHT22;6676;45.192;5.722;2022-11-20T11:35:02;9.70;99.90
13223;DHT22;6676;45.192;5.722;2022-11-20T11:38:01;9.80;99.90
13223;DHT22;6676;45.192;5.722;2022-11-20T11:40:47;9.80;99.90
13223;DHT22;6676;45.192;5.722;2022-11-20T11:43:39;9.80;99.90
13223;DHT22;6676;45.192;5.722;2022-11-20T11:49:30;9.90;99.90
13223;DHT22;6676;45.192;5.722;2022-11-20T11:55:05;10.20;99.90
13223;DHT22;6676;45.192;5.722;2022-11-20T11:58:09;10.20;99.90
13223;DHT22;6676;45.192;5.722;2022-11-20T12:01:03;10.30;99.90
13223;DHT22;6676;45.192;5.722;2022-11-20T12:04:00;10.40;99.90
13223;DHT22;6676;45.192;5.722;2022-11-20T12:09:35;10.60;99.90
13223;DHT22;6676;45.192;5.722;2022-11-20T12:17:50;10.80;99.90
13223;DHT22;6676;45.192;5.722;2022-11-20T12:20:45;10.80;99.90
13223;DHT22;6676;45.192;5.722;2022-11-20T12:23:42;10.80;99.90
13223;DHT22;6676;45.192;5.722;2022-11-20T12:26:44;10.90;99.90
13223;DHT22;6676;45.192;5.722;2022-11-20T12:29:43;11.00;99.90
13223;DHT22;6676;45.192;5.722;2022-11-20T12:42:43;10.80;99.90
13223;DHT22;6676;45.192;5.722;2022-11-20T12:48:54;10.80;99.90
13223;DHT22;6676;45.192;5.722;2022-11-20T12:55:15;10.80;99.90
13223;DHT22;6676;45.192;5.722;2022-11-20T12:58:10;10.80;99.90
13223;DHT22;6676;45.192;5.722;2022-11-20T13:01:05;10.90;99.90
13223;DHT22;6676;45.192;5.722;2022-11-20T13:03:58;10.90;99.90
13223;DHT22;6676;45.192;5.722;2022-11-20T13:06:53;11.00;99.90
13223;DHT22;6676;45.192;5.722;2022-11-20T13:09:46;11.00;99.90
13223;DHT22;6676;45.192;5.722;2022-11-20T13:12:43;11.00;99.90
13223;DHT22;6676;45.192;5.722;2022-11-20T13:15:42;11.10;99.90
13223;DHT22;6676;45.192;5.722;2022-11-20T13:18:39;11.20;99.90
13223;DHT22;6676;45.192;5.722;2022-11-20T13:21:39;11.20;99.90
13223;DHT22;6676;45.192;5.722;2022-11-20T13:24:30;11.20;99.90
13223;DHT22;6676;45.192;5.722;2022-11-20T13:27:22;11.20;99.90
13223;DHT22;6676;45.192;5.722;2022-11-20T13:30:18;11.20;99.90
13223;DHT22;6676;45.192;5.722;2022-11-20T13:33:22;11.10;99.90
13223;DHT22;6676;45.192;5.722;2022-11-20T13:36:24;11.10;99.90
13223;DHT22;6676;45.192;5.722;2022-11-20T13:39:24;11.10;99.90
13223;DHT22;6676;45.192;5.722;2022-11-20T13:42:25;11.10;99.90
13223;DHT22;6676;45.192;5.722;2022-11-20T13:45:25;11.20;99.90
13223;DHT22;6676;45.192;5.722;2022-11-20T13:48:24;11.20;99.90
13223;DHT22;6676;45.192;5.722;2022-11-20T13:51:23;11.20;99.90
13223;DHT22;6676;45.192;5.722;2022-11-20T13:58:04;11.30;99.90
13223;DHT22;6676;45.192;5.722;2022-11-20T14:01:00;11.30;99.90
13223;DHT22;6676;45.192;5.722;2022-11-20T14:03:53;11.30;99.90
13223;DHT22;6676;45.192;5.722;2022-11-20T14:06:47;11.30;99.90
13223;DHT22;6676;45.192;5.722;2022-11-20T14:09:48;11.20;99.90
13223;DHT22;6676;45.192;5.722;2022-11-20T14:12:38;11.10;99.90
13223;DHT22;6676;45.192;5.722;2022-11-20T14:15:31;11.10;99.90
13223;DHT22;6676;45.192;5.722;2022-11-20T14:18:25;11.00;99.90
13223;DHT22;6676;45.192;5.722;2022-11-20T14:21:23;11.00;99.90
13223;DHT22;6676;45.192;5.722;2022-11-20T14:24:18;10.90;99.90
13223;DHT22;6676;45.192;5.722;2022-11-20T14:27:14;10.90;99.90
13223;DHT22;6676;45.192;5.722;2022-11-20T14:30:11;10.80;99.90
13223;DHT22;6676;45.192;5.722;2022-11-20T14:33:04;10.80;99.90
13223;DHT22;6676;45.192;5.722;2022-11-20T14:35:57;10.80;99.90
13223;DHT22;6676;45.192;5.722;2022-11-20T14:38:49;10.80;99.90
13223;DHT22;6676;45.192;5.722;2022-11-20T14:41:49;10.80;99.90
13223;DHT22;6676;45.192;5.722;2022-11-20T14:44:37;10.90;99.90
13223;DHT22;6676;45.192;5.722;2022-11-20T14:47:30;11.00;99.90
13223;DHT22;6676;45.192;5.722;2022-11-20T14:50:24;10.90;99.90
13223;DHT22;6676;45.192;5.722;2022-11-20T14:56:04;10.70;99.90
13223;DHT22;6676;45.192;5.722;2022-11-20T14:58:58;10.60;99.90
13223;DHT22;6676;45.192;5.722;2022-11-20T15:01:56;10.50;99.90
13223;DHT22;6676;45.192;5.722;2022-11-20T15:04:49;10.50;99.90
13223;DHT22;6676;45.192;5.722;2022-11-20T15:07:42;10.50;99.90
13223;DHT22;6676;45.192;5.722;2022-11-20T15:10:35;10.40;99.90
13223;DHT22;6676;45.192;5.722;2022-11-20T15:13:30;10.30;99.90
13223;DHT22;6676;45.192;5.722;2022-11-20T15:16:23;10.30;99.90
13223;DHT22;6676;45.192;5.722;2022-11-20T15:19:18;10.20;99.90
13223;DHT22;6676;45.192;5.722;2022-11-20T15:22:12;10.20;99.90
13223;DHT22;6676;45.192;5.722;2022-11-20T15:25:12;10.20;99.90
13223;DHT22;6676;45.192;5.722;2022-11-20T15:28:10;10.20;99.90
13223;DHT22;6676;45.192;5.722;2022-11-20T15:31:02;10.20;99.90
13223;DHT22;6676;45.192;5.722;2022-11-20T15:33:54;10.10;99.90
13223;DHT22;6676;45.192;5.722;2022-11-20T15:36:46;10.10;99.90
13223;DHT22;6676;45.192;5.722;2022-11-20T15:39:37;10.10;99.90
13223;DHT22;6676;45.192;5.722;2022-11-20T15:42:29;10.00;99.90
13223;DHT22;6676;45.192;5.722;2022-11-20T15:45:21;10.00;99.90
13223;DHT22;6676;45.192;5.722;2022-11-20T15:48:14;10.00;99.90
13223;DHT22;6676;45.192;5.722;2022-11-20T15:51:12;9.90;99.90
13223;DHT22;6676;45.192;5.722;2022-11-20T15:54:09;10.00;99.90
13223;DHT22;6676;45.192;5.722;2022-11-20T15:57:02;10.00;99.90
13223;DHT22;6676;45.192;5.722;2022-11-20T15:59:53;10.10;99.90
13223;DHT22;6676;45.192;5.722;2022-11-20T16:02:44;10.10;99.90
13223;DHT22;6676;45.192;5.722;2022-11-20T16:05:36;10.00;99.90
13223;DHT22;6676;45.192;5.722;2022-11-20T16:08:28;9.90;99.90
13223;DHT22;6676;45.192;5.722;2022-11-20T16:11:19;9.80;99.90
13223;DHT22;6676;45.192;5.722;2022-11-20T16:14:11;9.70;99.90
13223;DHT22;6676;45.192;5.722;2022-11-20T16:20:20;9.50;99.90
13223;DHT22;6676;45.192;5.722;2022-11-20T16:23:10;9.50;99.90
13223;DHT22;6676;45.192;5.722;2022-11-20T16:26:09;9.50;99.90
13223;DHT22;6676;45.192;5.722;2022-11-20T16:29:02;9.50;99.90
13223;DHT22;6676;45.192;5.722;2022-11-20T16:31:54;9.40;99.90
13223;DHT22;6676;45.192;5.722;2022-11-20T16:34:47;9.30;99.90
13223;DHT22;6676;45.192;5.722;2022-11-20T16:37:38;9.30;99.90
13223;DHT22;6676;45.192;5.722;2022-11-20T16:40:30;9.30;99.90
13223;DHT22;6676;45.192;5.722;2022-11-20T16:43:21;9.30;99.90
13223;DHT22;6676;45.192;5.722;2022-11-20T16:46:13;9.30;99.90
13223;DHT22;6676;45.192;5.722;2022-11-20T16:49:08;9.30;99.90
13223;DHT22;6676;45.192;5.722;2022-11-20T16:51:59;9.40;99.90
13223;DHT22;6676;45.192;5.722;2022-11-20T16:54:50;9.40;99.90
13223;DHT22;6676;45.192;5.722;2022-11-20T16:57:42;9.30;99.90
13223;DHT22;6676;45.192;5.722;2022-11-20T17:00:35;9.30;99.90
13223;DHT22;6676;45.192;5.722;2022-11-20T17:03:27;9.30;99.90
13223;DHT22;6676;45.192;5.722;2022-11-20T17:06:21;9.30;99.90
13223;DHT22;6676;45.192;5.722;2022-11-20T17:09:13;9.40;99.90
13223;DHT22;6676;45.192;5.722;2022-11-20T17:12:05;9.40;99.90
13223;DHT22;6676;45.192;5.722;2022-11-20T17:14:57;9.50;99.90
13223;DHT22;6676;45.192;5.722;2022-11-20T17:17:48;9.40;99.90
13223;DHT22;6676;45.192;5.722;2022-11-20T17:20:40;9.40;99.90
13223;DHT22;6676;45.192;5.722;2022-11-20T17:23:32;9.40;99.90
13223;DHT22;6676;45.192;5.722;2022-11-20T17:26:24;9.50;99.90
13223;DHT22;6676;45.192;5.722;2022-11-20T17:29:18;9.50;99.90
13223;DHT22;6676;45.192;5.722;2022-11-20T17:32:11;9.50;99.90
13223;DHT22;6676;45.192;5.722;2022-11-20T17:35:04;9.40;99.90
13223;DHT22;6676;45.192;5.722;2022-11-20T17:37:55;9.50;99.90
13223;DHT22;6676;45.192;5.722;2022-11-20T17:40:47;9.50;99.90
13223;DHT22;6676;45.192;5.722;2022-11-20T17:43:39;9.50;99.90
13223;DHT22;6676;45.192;5.722;2022-11-20T17:46:32;9.50;99.90
13223;DHT22;6676;45.192;5.722;2022-11-20T17:49:24;9.50;99.90
13223;DHT22;6676;45.192;5.722;2022-11-20T17:52:15;9.60;99.90
13223;DHT22;6676;45.192;5.722;2022-11-20T17:55:08;9.60;99.90
13223;DHT22;6676;45.192;5.722;2022-11-20T17:58:00;9.60;99.90
13223;DHT22;6676;45.192;5.722;2022-11-20T18:00:53;9.50;99.90
13223;DHT22;6676;45.192;5.722;2022-11-20T18:03:44;9.50;99.90
13223;DHT22;6676;45.192;5.722;2022-11-20T18:06:35;9.50;99.90
13223;DHT22;6676;45.192;5.722;2022-11-20T18:09:26;9.50;99.90
13223;DHT22;6676;45.192;5.722;2022-11-20T18:12:18;9.50;99.90
13223;DHT22;6676;45.192;5.722;2022-11-20T18:15:09;9.50;99.90
13223;DHT22;6676;45.192;5.722;2022-11-20T18:18:00;9.40;99.90
13223;DHT22;6676;45.192;5.722;2022-11-20T18:20:53;9.30;99.90
13223;DHT22;6676;45.192;5.722;2022-11-20T18:23:45;9.20;99.90
13223;DHT22;6676;45.192;5.722;2022-11-20T18:26:37;9.20;99.90
13223;DHT22;6676;45.192;5.722;2022-11-20T18:29:30;9.10;99.90
13223;DHT22;6676;45.192;5.722;2022-11-20T18:35:00;9.10;99.90
13223;DHT22;6676;45.192;5.722;2022-11-20T18:37:51;9.00;99.90
13223;DHT22;6676;45.192;5.722;2022-11-20T18:40:42;9.00;99.90
13223;DHT22;6676;45.192;5.722;2022-11-20T18:46:11;8.90;99.90
13223;DHT22;6676;45.192;5.722;2022-11-20T18:49:02;8.90;99.90
13223;DHT22;6676;45.192;5.722;2022-11-20T18:51:53;8.90;99.90
13223;DHT22;6676;45.192;5.722;2022-11-20T18:54:44;8.90;99.90
13223;DHT22;6676;45.192;5.722;2022-11-20T18:57:36;8.90;99.90
13223;DHT22;6676;45.192;5.722;2022-11-20T19:00:27;8.90;99.90
13223;DHT22;6676;45.192;5.722;2022-11-20T19:03:19;8.90;99.90
13223;DHT22;6676;45.192;5.722;2022-11-20T19:06:13;8.90;99.90
13223;DHT22;6676;45.192;5.722;2022-11-20T19:09:06;8.90;99.90
13223;DHT22;6676;45.192;5.722;2022-11-20T19:11:58;8.90;99.90
13223;DHT22;6676;45.192;5.722;2022-11-20T19:14:50;8.90;99.90
13223;DHT22;6676;45.192;5.722;2022-11-20T19:17:41;8.80;99.90
13223;DHT22;6676;45.192;5.722;2022-11-20T19:20:35;8.80;99.90
13223;DHT22;6676;45.192;5.722;2022-11-20T19:23:27;8.70;99.90
13223;DHT22;6676;45.192;5.722;2022-11-20T19:26:19;8.80;99.90
13223;DHT22;6676;45.192;5.722;2022-11-20T19:29:13;8.80;99.90
13223;DHT22;6676;45.192;5.722;2022-11-20T19:32:05;8.80;99.90
13223;DHT22;6676;45.192;5.722;2022-11-20T19:34:56;8.80;99.90
13223;DHT22;6676;45.192;5.722;2022-11-20T19:37:48;8.80;99.90
13223;DHT22;6676;45.192;5.722;2022-11-20T19:40:41;8.70;99.90
13223;DHT22;6676;45.192;5.722;2022-11-20T19:46:13;8.70;99.90
13223;DHT22;6676;45.192;5.722;2022-11-20T19:49:07;8.70;99.90
13223;DHT22;6676;45.192;5.722;2022-11-20T19:51:59;8.70;99.90
13223;DHT22;6676;45.192;5.722;2022-11-20T19:57:29;8.70;99.90
13223;DHT22;6676;45.192;5.722;2022-11-20T20:03:01;8.80;99.90
13223;DHT22;6676;45.192;5.722;2022-11-20T20:05:51;8.80;99.90
13223;DHT22;6676;45.192;5.722;2022-11-20T20:11:23;8.80;99.90
13223;DHT22;6676;45.192;5.722;2022-11-20T20:14:16;8.80;99.90
13223;DHT22;6676;45.192;5.722;2022-11-20T20:17:07;8.80;99.90
13223;DHT22;6676;45.192;5.722;2022-11-20T20:19:59;8.80;99.90
13223;DHT22;6676;45.192;5.722;2022-11-20T20:22:50;8.80;99.90
13223;DHT22;6676;45.192;5.722;2022-11-20T20:25:42;8.80;99.90
13223;DHT22;6676;45.192;5.722;2022-11-20T20:28:36;8.80;99.90
13223;DHT22;6676;45.192;5.722;2022-11-20T20:31:29;8.80;99.90
13223;DHT22;6676;45.192;5.722;2022-11-20T20:34:21;8.80;99.90
13223;DHT22;6676;45.192;5.722;2022-11-20T20:37:12;8.80;99.90
13223;DHT22;6676;45.192;5.722;2022-11-20T20:40:04;8.80;99.90
13223;DHT22;6676;45.192;5.722;2022-11-20T20:42:57;8.70;99.90
13223;DHT22;6676;45.192;5.722;2022-11-20T20:45:49;8.70;99.90
13223;DHT22;6676;45.192;5.722;2022-11-20T20:51:20;8.70;99.90
13223;DHT22;6676;45.192;5.722;2022-11-20T20:56:51;8.50;99.90
13223;DHT22;6676;45.192;5.722;2022-11-20T20:59:42;8.40;99.90
13223;DHT22;6676;45.192;5.722;2022-11-20T21:02:33;8.40;99.90
13223;DHT22;6676;45.192;5.722;2022-11-20T21:05:25;8.30;99.90
13223;DHT22;6676;45.192;5.722;2022-11-20T21:11:01;8.20;99.90
13223;DHT22;6676;45.192;5.722;2022-11-20T21:16:32;8.10;99.90
13223;DHT22;6676;45.192;5.722;2022-11-20T21:19:25;8.10;99.90
13223;DHT22;6676;45.192;5.722;2022-11-20T21:22:17;8.20;99.90
13223;DHT22;6676;45.192;5.722;2022-11-20T21:25:08;8.20;99.90
13223;DHT22;6676;45.192;5.722;2022-11-20T21:27:59;8.20;99.90
13223;DHT22;6676;45.192;5.722;2022-11-20T21:30:51;8.20;99.90
13223;DHT22;6676;45.192;5.722;2022-11-20T21:36:23;8.10;99.90
13223;DHT22;6676;45.192;5.722;2022-11-20T21:39:16;8.00;99.90
13223;DHT22;6676;45.192;5.722;2022-11-20T21:42:08;8.00;99.90
13223;DHT22;6676;45.192;5.722;2022-11-20T21:44:59;7.90;99.90
13223;DHT22;6676;45.192;5.722;2022-11-20T21:47:51;7.90;99.90
13223;DHT22;6676;45.192;5.722;2022-11-20T21:53:22;7.80;99.90